sensor_id;sensor_type;location;lat;lon;timestamp;P1;durP1;ratioP1;P2;durP2;ratioP2
59474;SDS011;45288;51.136;16.928;2024-03-02T00:00:11;114.37;;;63.70;;
59474;SDS011;45288;51.136;16.928;2024-03-02T00:02:42;112.47;;;65.20;;
59474;SDS011;45288;51.136;16.928;2024-03-02T00:05:10;115.05;;;64.95;;
59474;SDS011;45288;51.136;16.928;2024-03-02T00:07:37;112.25;;;64.38;;
59474;SDS011;45288;51.136;16.928;2024-03-02T00:10:08;110.43;;;62.92;;
59474;SDS011;45288;51.136;16.928;2024-03-02T00:12:36;113.77;;;65.77;;
59474;SDS011;45288;51.136;16.928;2024-03-02T00:15:31;112.35;;;65.80;;
59474;SDS011;45288;51.136;16.928;2024-03-02T00:18:02;115.07;;;66.10;;
59474;SDS011;45288;51.136;16.928;2024-03-02T00:20:30;108.45;;;64.93;;
59474;SDS011;45288;51.136;16.928;2024-03-02T00:23:03;112.78;;;67.05;;
59474;SDS011;45288;51.136;16.928;2024-03-02T00:25:43;111.45;;;66.75;;
59474;SDS011;45288;51.136;16.928;2024-03-02T00:28:21;116.80;;;68.70;;
59474;SDS011;45288;51.136;16.928;2024-03-02T00:33:47;111.10;;;66.78;;
59474;SDS011;45288;51.136;16.928;2024-03-02T00:36:14;111.63;;;65.15;;
59474;SDS011;45288;51.136;16.928;2024-03-02T00:38:47;111.90;;;66.68;;
59474;SDS011;45288;51.136;16.928;2024-03-02T00:44:06;115.40;;;66.13;;
59474;SDS011;45288;51.136;16.928;2024-03-02T00:46:35;117.07;;;67.80;;
59474;SDS011;45288;51.136;16.928;2024-03-02T00:49:23;120.47;;;67.85;;
59474;SDS011;45288;51.136;16.928;2024-03-02T00:51:49;124.63;;;70.80;;
59474;SDS011;45288;51.136;16.928;2024-03-02T00:54:20;118.68;;;67.72;;
59474;SDS011;45288;51.136;16.928;2024-03-02T00:56:50;122.85;;;68.95;;
59474;SDS011;45288;51.136;16.928;2024-03-02T00:59:16;124.35;;;68.55;;
59474;SDS011;45288;51.136;16.928;2024-03-02T01:01:42;113.63;;;66.18;;
59474;SDS011;45288;51.136;16.928;2024-03-02T01:04:08;114.15;;;66.88;;
59474;SDS011;45288;51.136;16.928;2024-03-02T01:06:37;119.40;;;69.20;;
59474;SDS011;45288;51.136;16.928;2024-03-02T01:09:03;113.57;;;66.78;;
59474;SDS011;45288;51.136;16.928;2024-03-02T01:11:29;113.37;;;66.50;;
59474;SDS011;45288;51.136;16.928;2024-03-02T01:13:55;118.35;;;68.07;;
59474;SDS011;45288;51.136;16.928;2024-03-02T01:16:21;105.97;;;64.68;;
59474;SDS011;45288;51.136;16.928;2024-03-02T01:18:47;112.87;;;66.73;;
59474;SDS011;45288;51.136;16.928;2024-03-02T01:21:13;111.83;;;67.03;;
59474;SDS011;45288;51.136;16.928;2024-03-02T01:23:39;115.30;;;65.93;;
59474;SDS011;45288;51.136;16.928;2024-03-02T01:26:04;112.85;;;66.63;;
59474;SDS011;45288;51.136;16.928;2024-03-02T01:28:31;111.75;;;67.65;;
59474;SDS011;45288;51.136;16.928;2024-03-02T01:30:56;116.73;;;66.03;;
59474;SDS011;45288;51.136;16.928;2024-03-02T01:33:22;110.20;;;65.93;;
59474;SDS011;45288;51.136;16.928;2024-03-02T01:35:48;119.00;;;67.73;;
59474;SDS011;45288;51.136;16.928;2024-03-02T01:38:14;114.40;;;66.07;;
59474;SDS011;45288;51.136;16.928;2024-03-02T01:40:39;122.38;;;67.28;;
59474;SDS011;45288;51.136;16.928;2024-03-02T01:43:05;110.93;;;67.03;;
59474;SDS011;45288;51.136;16.928;2024-03-02T01:45:32;112.78;;;67.40;;
59474;SDS011;45288;51.136;16.928;2024-03-02T01:47:59;115.50;;;66.13;;
59474;SDS011;45288;51.136;16.928;2024-03-02T01:50:26;114.20;;;66.45;;
59474;SDS011;45288;51.136;16.928;2024-03-02T01:52:56;116.05;;;66.88;;
59474;SDS011;45288;51.136;16.928;2024-03-02T01:55:22;111.32;;;65.45;;
59474;SDS011;45288;51.136;16.928;2024-03-02T01:57:49;116.15;;;65.50;;
59474;SDS011;45288;51.136;16.928;2024-03-02T02:00:18;116.73;;;67.40;;
59474;SDS011;45288;51.136;16.928;2024-03-02T02:02:46;119.63;;;67.45;;
59474;SDS011;45288;51.136;16.928;2024-03-02T02:05:12;115.67;;;68.30;;
59474;SDS011;45288;51.136;16.928;2024-03-02T02:07:38;116.80;;;66.88;;
59474;SDS011;45288;51.136;16.928;2024-03-02T02:10:04;114.88;;;66.20;;
59474;SDS011;45288;51.136;16.928;2024-03-02T02:12:30;112.20;;;66.78;;
59474;SDS011;45288;51.136;16.928;2024-03-02T02:14:56;114.20;;;66.17;;
59474;SDS011;45288;51.136;16.928;2024-03-02T02:17:21;121.35;;;69.45;;
59474;SDS011;45288;51.136;16.928;2024-03-02T02:19:47;122.17;;;67.27;;
59474;SDS011;45288;51.136;16.928;2024-03-02T02:22:13;118.80;;;66.93;;
59474;SDS011;45288;51.136;16.928;2024-03-02T02:24:41;118.63;;;68.97;;
59474;SDS011;45288;51.136;16.928;2024-03-02T02:27:08;121.40;;;67.75;;
59474;SDS011;45288;51.136;16.928;2024-03-02T02:29:34;123.35;;;66.10;;
59474;SDS011;45288;51.136;16.928;2024-03-02T02:32:00;122.05;;;67.22;;
59474;SDS011;45288;51.136;16.928;2024-03-02T02:34:25;114.20;;;63.30;;
59474;SDS011;45288;51.136;16.928;2024-03-02T02:36:51;118.53;;;65.03;;
59474;SDS011;45288;51.136;16.928;2024-03-02T02:39:18;113.75;;;65.18;;
59474;SDS011;45288;51.136;16.928;2024-03-02T02:41:47;114.15;;;63.35;;
59474;SDS011;45288;51.136;16.928;2024-03-02T02:44:14;117.20;;;62.53;;
59474;SDS011;45288;51.136;16.928;2024-03-02T02:46:40;117.00;;;66.60;;
59474;SDS011;45288;51.136;16.928;2024-03-02T02:49:06;124.07;;;65.97;;
59474;SDS011;45288;51.136;16.928;2024-03-02T02:51:32;119.35;;;66.45;;
59474;SDS011;45288;51.136;16.928;2024-03-02T02:53:57;125.43;;;68.90;;
59474;SDS011;45288;51.136;16.928;2024-03-02T02:56:23;112.65;;;62.92;;
59474;SDS011;45288;51.136;16.928;2024-03-02T02:58:49;123.23;;;67.07;;
59474;SDS011;45288;51.136;16.928;2024-03-02T03:01:15;119.28;;;67.95;;
59474;SDS011;45288;51.136;16.928;2024-03-02T03:03:44;124.32;;;67.82;;
59474;SDS011;45288;51.136;16.928;2024-03-02T03:06:11;124.60;;;68.88;;
59474;SDS011;45288;51.136;16.928;2024-03-02T03:08:37;121.45;;;66.28;;
59474;SDS011;45288;51.136;16.928;2024-03-02T03:11:06;119.50;;;67.38;;
59474;SDS011;45288;51.136;16.928;2024-03-02T03:13:32;121.90;;;65.75;;
59474;SDS011;45288;51.136;16.928;2024-03-02T03:15:59;123.80;;;67.43;;
59474;SDS011;45288;51.136;16.928;2024-03-02T03:18:25;117.78;;;66.07;;
59474;SDS011;45288;51.136;16.928;2024-03-02T03:20:50;119.67;;;65.50;;
59474;SDS011;45288;51.136;16.928;2024-03-02T03:23:16;117.15;;;66.07;;
59474;SDS011;45288;51.136;16.928;2024-03-02T03:25:42;121.95;;;66.35;;
59474;SDS011;45288;51.136;16.928;2024-03-02T03:28:08;126.28;;;67.28;;
59474;SDS011;45288;51.136;16.928;2024-03-02T03:30:37;118.82;;;65.85;;
59474;SDS011;45288;51.136;16.928;2024-03-02T03:33:04;134.23;;;69.50;;
59474;SDS011;45288;51.136;16.928;2024-03-02T03:35:33;122.53;;;66.68;;
59474;SDS011;45288;51.136;16.928;2024-03-02T03:37:59;122.47;;;64.38;;
59474;SDS011;45288;51.136;16.928;2024-03-02T03:40:25;120.40;;;64.50;;
59474;SDS011;45288;51.136;16.928;2024-03-02T03:42:51;123.55;;;65.47;;
59474;SDS011;45288;51.136;16.928;2024-03-02T03:45:17;119.68;;;63.97;;
59474;SDS011;45288;51.136;16.928;2024-03-02T03:47:42;121.53;;;64.43;;
59474;SDS011;45288;51.136;16.928;2024-03-02T03:50:08;120.90;;;64.78;;
59474;SDS011;45288;51.136;16.928;2024-03-02T03:52:34;115.35;;;63.08;;
59474;SDS011;45288;51.136;16.928;2024-03-02T03:55:00;118.63;;;61.95;;
59474;SDS011;45288;51.136;16.928;2024-03-02T03:57:26;112.47;;;61.28;;
59474;SDS011;45288;51.136;16.928;2024-03-02T03:59:53;126.40;;;64.88;;
59474;SDS011;45288;51.136;16.928;2024-03-02T04:02:19;113.60;;;62.90;;
59474;SDS011;45288;51.136;16.928;2024-03-02T04:04:45;116.03;;;61.97;;
59474;SDS011;45288;51.136;16.928;2024-03-02T04:07:11;113.30;;;58.67;;
59474;SDS011;45288;51.136;16.928;2024-03-02T04:09:38;113.93;;;62.08;;
59474;SDS011;45288;51.136;16.928;2024-03-02T04:12:03;117.45;;;60.03;;
59474;SDS011;45288;51.136;16.928;2024-03-02T04:14:29;114.45;;;61.67;;
59474;SDS011;45288;51.136;16.928;2024-03-02T04:16:55;112.67;;;60.77;;
59474;SDS011;45288;51.136;16.928;2024-03-02T04:19:21;105.45;;;59.15;;
59474;SDS011;45288;51.136;16.928;2024-03-02T04:21:47;111.15;;;60.33;;
59474;SDS011;45288;51.136;16.928;2024-03-02T04:24:13;110.27;;;59.20;;
59474;SDS011;45288;51.136;16.928;2024-03-02T04:26:38;111.85;;;60.05;;
59474;SDS011;45288;51.136;16.928;2024-03-02T04:29:04;107.17;;;56.43;;
59474;SDS011;45288;51.136;16.928;2024-03-02T04:31:30;108.88;;;57.90;;
59474;SDS011;45288;51.136;16.928;2024-03-02T04:33:56;107.03;;;59.38;;
59474;SDS011;45288;51.136;16.928;2024-03-02T04:36:21;106.47;;;56.83;;
59474;SDS011;45288;51.136;16.928;2024-03-02T04:38:47;107.53;;;57.77;;
59474;SDS011;45288;51.136;16.928;2024-03-02T04:41:13;104.63;;;55.50;;
59474;SDS011;45288;51.136;16.928;2024-03-02T04:43:39;99.20;;;55.72;;
59474;SDS011;45288;51.136;16.928;2024-03-02T04:46:05;106.87;;;56.87;;
59474;SDS011;45288;51.136;16.928;2024-03-02T04:48:33;105.53;;;57.67;;
59474;SDS011;45288;51.136;16.928;2024-03-02T04:50:59;107.20;;;57.33;;
59474;SDS011;45288;51.136;16.928;2024-03-02T04:53:25;106.55;;;58.35;;
59474;SDS011;45288;51.136;16.928;2024-03-02T04:55:51;106.90;;;56.60;;
59474;SDS011;45288;51.136;16.928;2024-03-02T04:58:19;103.65;;;56.40;;
59474;SDS011;45288;51.136;16.928;2024-03-02T05:00:45;106.63;;;57.03;;
59474;SDS011;45288;51.136;16.928;2024-03-02T05:03:12;108.78;;;57.92;;
59474;SDS011;45288;51.136;16.928;2024-03-02T05:05:38;98.75;;;55.63;;
59474;SDS011;45288;51.136;16.928;2024-03-02T05:08:04;102.15;;;56.08;;
59474;SDS011;45288;51.136;16.928;2024-03-02T05:10:30;97.53;;;55.40;;
59474;SDS011;45288;51.136;16.928;2024-03-02T05:12:56;100.00;;;54.77;;
59474;SDS011;45288;51.136;16.928;2024-03-02T05:15:22;99.38;;;55.88;;
59474;SDS011;45288;51.136;16.928;2024-03-02T05:17:48;103.13;;;56.33;;
59474;SDS011;45288;51.136;16.928;2024-03-02T05:20:14;101.50;;;56.77;;
59474;SDS011;45288;51.136;16.928;2024-03-02T05:22:39;99.40;;;55.63;;
59474;SDS011;45288;51.136;16.928;2024-03-02T05:25:06;106.88;;;58.08;;
59474;SDS011;45288;51.136;16.928;2024-03-02T05:27:32;99.85;;;55.42;;
59474;SDS011;45288;51.136;16.928;2024-03-02T05:29:58;101.25;;;54.55;;
59474;SDS011;45288;51.136;16.928;2024-03-02T05:32:25;101.25;;;56.72;;
59474;SDS011;45288;51.136;16.928;2024-03-02T05:34:51;105.67;;;56.70;;
59474;SDS011;45288;51.136;16.928;2024-03-02T05:37:17;99.13;;;55.85;;
59474;SDS011;45288;51.136;16.928;2024-03-02T05:39:43;102.88;;;57.40;;
59474;SDS011;45288;51.136;16.928;2024-03-02T05:42:09;101.10;;;55.90;;
59474;SDS011;45288;51.136;16.928;2024-03-02T05:44:35;105.20;;;57.72;;
59474;SDS011;45288;51.136;16.928;2024-03-02T05:47:02;102.63;;;56.70;;
59474;SDS011;45288;51.136;16.928;2024-03-02T05:49:28;110.63;;;58.28;;
59474;SDS011;45288;51.136;16.928;2024-03-02T05:51:55;100.78;;;57.22;;
59474;SDS011;45288;51.136;16.928;2024-03-02T05:54:20;105.25;;;57.22;;
59474;SDS011;45288;51.136;16.928;2024-03-02T05:56:46;101.77;;;58.00;;
59474;SDS011;45288;51.136;16.928;2024-03-02T05:59:12;104.85;;;57.38;;
59474;SDS011;45288;51.136;16.928;2024-03-02T06:01:41;98.63;;;56.55;;
59474;SDS011;45288;51.136;16.928;2024-03-02T06:04:09;103.97;;;58.17;;
59474;SDS011;45288;51.136;16.928;2024-03-02T06:06:36;104.20;;;57.70;;
59474;SDS011;45288;51.136;16.928;2024-03-02T06:09:03;106.00;;;57.28;;
59474;SDS011;45288;51.136;16.928;2024-03-02T06:11:38;103.55;;;58.95;;
59474;SDS011;45288;51.136;16.928;2024-03-02T06:14:06;104.68;;;57.72;;
59474;SDS011;45288;51.136;16.928;2024-03-02T06:16:32;98.78;;;55.75;;
59474;SDS011;45288;51.136;16.928;2024-03-02T06:18:59;103.60;;;55.55;;
59474;SDS011;45288;51.136;16.928;2024-03-02T06:21:25;98.23;;;56.17;;
59474;SDS011;45288;51.136;16.928;2024-03-02T06:23:51;98.03;;;54.80;;
59474;SDS011;45288;51.136;16.928;2024-03-02T06:26:17;96.82;;;55.00;;
59474;SDS011;45288;51.136;16.928;2024-03-02T06:28:44;103.20;;;57.55;;
59474;SDS011;45288;51.136;16.928;2024-03-02T06:31:10;99.30;;;56.50;;
59474;SDS011;45288;51.136;16.928;2024-03-02T06:33:36;92.32;;;54.08;;
59474;SDS011;45288;51.136;16.928;2024-03-02T06:36:02;96.72;;;54.55;;
59474;SDS011;45288;51.136;16.928;2024-03-02T06:38:28;94.38;;;55.38;;
59474;SDS011;45288;51.136;16.928;2024-03-02T06:40:54;98.38;;;55.35;;
59474;SDS011;45288;51.136;16.928;2024-03-02T06:43:22;95.37;;;54.17;;
59474;SDS011;45288;51.136;16.928;2024-03-02T06:45:49;99.07;;;55.28;;
59474;SDS011;45288;51.136;16.928;2024-03-02T06:48:16;97.53;;;55.03;;
59474;SDS011;45288;51.136;16.928;2024-03-02T06:50:48;100.82;;;55.20;;
59474;SDS011;45288;51.136;16.928;2024-03-02T06:53:15;97.50;;;55.00;;
59474;SDS011;45288;51.136;16.928;2024-03-02T06:55:45;98.85;;;53.53;;
59474;SDS011;45288;51.136;16.928;2024-03-02T06:58:12;102.88;;;55.92;;
59474;SDS011;45288;51.136;16.928;2024-03-02T07:00:41;96.17;;;54.30;;
59474;SDS011;45288;51.136;16.928;2024-03-02T07:03:08;95.22;;;54.55;;
59474;SDS011;45288;51.136;16.928;2024-03-02T07:05:33;89.05;;;53.17;;
59474;SDS011;45288;51.136;16.928;2024-03-02T07:07:59;93.37;;;52.90;;
59474;SDS011;45288;51.136;16.928;2024-03-02T07:10:27;90.68;;;53.88;;
59474;SDS011;45288;51.136;16.928;2024-03-02T07:12:52;102.03;;;59.83;;
59474;SDS011;45288;51.136;16.928;2024-03-02T07:15:18;111.45;;;57.30;;
59474;SDS011;45288;51.136;16.928;2024-03-02T07:18:04;93.63;;;53.42;;
59474;SDS011;45288;51.136;16.928;2024-03-02T07:20:30;91.73;;;52.90;;
59474;SDS011;45288;51.136;16.928;2024-03-02T07:22:56;91.20;;;53.40;;
59474;SDS011;45288;51.136;16.928;2024-03-02T07:25:21;98.37;;;54.73;;
59474;SDS011;45288;51.136;16.928;2024-03-02T07:27:47;95.70;;;54.28;;
59474;SDS011;45288;51.136;16.928;2024-03-02T07:30:13;91.37;;;52.57;;
59474;SDS011;45288;51.136;16.928;2024-03-02T07:32:41;83.65;;;50.33;;
59474;SDS011;45288;51.136;16.928;2024-03-02T07:35:13;86.23;;;51.13;;
59474;SDS011;45288;51.136;16.928;2024-03-02T07:37:43;90.20;;;51.80;;
59474;SDS011;45288;51.136;16.928;2024-03-02T07:40:09;88.82;;;51.67;;
59474;SDS011;45288;51.136;16.928;2024-03-02T07:42:39;82.55;;;49.90;;
59474;SDS011;45288;51.136;16.928;2024-03-02T07:45:06;86.53;;;50.97;;
59474;SDS011;45288;51.136;16.928;2024-03-02T07:47:35;89.47;;;51.38;;
59474;SDS011;45288;51.136;16.928;2024-03-02T07:50:00;88.20;;;49.33;;
59474;SDS011;45288;51.136;16.928;2024-03-02T07:52:26;81.80;;;49.38;;
59474;SDS011;45288;51.136;16.928;2024-03-02T07:54:52;93.27;;;51.53;;
59474;SDS011;45288;51.136;16.928;2024-03-02T07:57:18;89.00;;;50.83;;
59474;SDS011;45288;51.136;16.928;2024-03-02T07:59:43;82.17;;;50.00;;
59474;SDS011;45288;51.136;16.928;2024-03-02T08:02:09;91.97;;;52.20;;
59474;SDS011;45288;51.136;16.928;2024-03-02T08:04:35;80.88;;;49.78;;
59474;SDS011;45288;51.136;16.928;2024-03-02T08:07:02;84.25;;;49.70;;
59474;SDS011;45288;51.136;16.928;2024-03-02T08:09:28;86.55;;;50.38;;
59474;SDS011;45288;51.136;16.928;2024-03-02T08:11:54;83.38;;;48.42;;
59474;SDS011;45288;51.136;16.928;2024-03-02T08:14:20;79.80;;;47.50;;
59474;SDS011;45288;51.136;16.928;2024-03-02T08:16:46;83.70;;;48.95;;
59474;SDS011;45288;51.136;16.928;2024-03-02T08:19:11;75.93;;;46.03;;
59474;SDS011;45288;51.136;16.928;2024-03-02T08:21:37;76.60;;;45.60;;
59474;SDS011;45288;51.136;16.928;2024-03-02T08:24:03;75.70;;;45.87;;
59474;SDS011;45288;51.136;16.928;2024-03-02T08:26:29;74.72;;;44.58;;
59474;SDS011;45288;51.136;16.928;2024-03-02T08:28:57;75.82;;;45.10;;
59474;SDS011;45288;51.136;16.928;2024-03-02T08:31:24;75.63;;;46.73;;
59474;SDS011;45288;51.136;16.928;2024-03-02T08:33:49;80.32;;;46.72;;
59474;SDS011;45288;51.136;16.928;2024-03-02T08:36:15;78.97;;;45.67;;
59474;SDS011;45288;51.136;16.928;2024-03-02T08:38:42;73.88;;;45.70;;
59474;SDS011;45288;51.136;16.928;2024-03-02T08:41:09;110.63;;;52.92;;
59474;SDS011;45288;51.136;16.928;2024-03-02T08:43:35;75.78;;;45.08;;
59474;SDS011;45288;51.136;16.928;2024-03-02T08:46:01;80.13;;;45.57;;
59474;SDS011;45288;51.136;16.928;2024-03-02T08:48:27;72.28;;;43.78;;
59474;SDS011;45288;51.136;16.928;2024-03-02T08:50:52;76.77;;;43.80;;
59474;SDS011;45288;51.136;16.928;2024-03-02T08:53:18;73.45;;;44.45;;
59474;SDS011;45288;51.136;16.928;2024-03-02T08:55:45;75.87;;;45.40;;
59474;SDS011;45288;51.136;16.928;2024-03-02T08:58:11;78.23;;;44.43;;
59474;SDS011;45288;51.136;16.928;2024-03-02T09:00:37;75.95;;;44.13;;
59474;SDS011;45288;51.136;16.928;2024-03-02T09:03:03;71.72;;;42.53;;
59474;SDS011;45288;51.136;16.928;2024-03-02T09:05:29;73.22;;;42.85;;
59474;SDS011;45288;51.136;16.928;2024-03-02T09:07:55;75.47;;;42.20;;
59474;SDS011;45288;51.136;16.928;2024-03-02T09:10:21;69.65;;;42.15;;
59474;SDS011;45288;51.136;16.928;2024-03-02T09:12:47;74.32;;;40.92;;
59474;SDS011;45288;51.136;16.928;2024-03-02T09:15:13;73.00;;;41.57;;
59474;SDS011;45288;51.136;16.928;2024-03-02T09:17:38;71.35;;;40.50;;
59474;SDS011;45288;51.136;16.928;2024-03-02T09:20:05;74.20;;;41.17;;
59474;SDS011;45288;51.136;16.928;2024-03-02T09:22:30;73.18;;;40.90;;
59474;SDS011;45288;51.136;16.928;2024-03-02T09:24:57;75.45;;;42.10;;
59474;SDS011;45288;51.136;16.928;2024-03-02T09:27:23;74.22;;;42.65;;
59474;SDS011;45288;51.136;16.928;2024-03-02T09:29:49;78.20;;;42.55;;
59474;SDS011;45288;51.136;16.928;2024-03-02T09:32:15;76.13;;;40.83;;
59474;SDS011;45288;51.136;16.928;2024-03-02T09:34:41;71.50;;;40.50;;
59474;SDS011;45288;51.136;16.928;2024-03-02T09:37:07;75.18;;;41.22;;
59474;SDS011;45288;51.136;16.928;2024-03-02T09:39:33;74.82;;;40.33;;
59474;SDS011;45288;51.136;16.928;2024-03-02T09:41:59;73.10;;;39.97;;
59474;SDS011;45288;51.136;16.928;2024-03-02T09:44:25;69.47;;;38.83;;
59474;SDS011;45288;51.136;16.928;2024-03-02T09:46:51;66.00;;;38.60;;
59474;SDS011;45288;51.136;16.928;2024-03-02T09:49:17;66.95;;;38.30;;
59474;SDS011;45288;51.136;16.928;2024-03-02T09:51:47;61.88;;;36.60;;
59474;SDS011;45288;51.136;16.928;2024-03-02T09:54:16;68.65;;;38.85;;
59474;SDS011;45288;51.136;16.928;2024-03-02T09:56:43;63.50;;;38.75;;
59474;SDS011;45288;51.136;16.928;2024-03-02T09:59:10;65.80;;;38.47;;
59474;SDS011;45288;51.136;16.928;2024-03-02T10:01:36;64.47;;;38.13;;
59474;SDS011;45288;51.136;16.928;2024-03-02T10:04:02;65.57;;;37.73;;
59474;SDS011;45288;51.136;16.928;2024-03-02T10:06:28;61.50;;;35.58;;
59474;SDS011;45288;51.136;16.928;2024-03-02T10:08:54;68.70;;;37.35;;
59474;SDS011;45288;51.136;16.928;2024-03-02T10:11:27;62.38;;;35.38;;
59474;SDS011;45288;51.136;16.928;2024-03-02T10:14:04;66.18;;;35.20;;
59474;SDS011;45288;51.136;16.928;2024-03-02T10:16:34;61.30;;;35.40;;
59474;SDS011;45288;51.136;16.928;2024-03-02T10:21:55;63.33;;;36.23;;
59474;SDS011;45288;51.136;16.928;2024-03-02T10:24:23;62.05;;;35.22;;
59474;SDS011;45288;51.136;16.928;2024-03-02T10:26:49;62.67;;;36.17;;
59474;SDS011;45288;51.136;16.928;2024-03-02T10:29:16;66.55;;;36.95;;
59474;SDS011;45288;51.136;16.928;2024-03-02T10:31:42;58.93;;;33.97;;
59474;SDS011;45288;51.136;16.928;2024-03-02T10:34:09;66.50;;;36.05;;
59474;SDS011;45288;51.136;16.928;2024-03-02T10:36:36;68.63;;;35.58;;
59474;SDS011;45288;51.136;16.928;2024-03-02T10:39:06;64.40;;;34.67;;
59474;SDS011;45288;51.136;16.928;2024-03-02T10:41:33;58.50;;;32.92;;
59474;SDS011;45288;51.136;16.928;2024-03-02T10:44:01;64.45;;;34.50;;
59474;SDS011;45288;51.136;16.928;2024-03-02T10:46:29;59.08;;;33.53;;
59474;SDS011;45288;51.136;16.928;2024-03-02T10:48:56;60.67;;;33.15;;
59474;SDS011;45288;51.136;16.928;2024-03-02T10:51:24;58.88;;;32.58;;
59474;SDS011;45288;51.136;16.928;2024-03-02T10:53:58;57.65;;;31.83;;
59474;SDS011;45288;51.136;16.928;2024-03-02T10:56:30;56.20;;;32.60;;
59474;SDS011;45288;51.136;16.928;2024-03-02T11:01:31;55.60;;;32.00;;
59474;SDS011;45288;51.136;16.928;2024-03-02T11:03:58;56.95;;;32.00;;
59474;SDS011;45288;51.136;16.928;2024-03-02T11:06:28;59.37;;;32.00;;
59474;SDS011;45288;51.136;16.928;2024-03-02T11:08:55;57.88;;;31.10;;
59474;SDS011;45288;51.136;16.928;2024-03-02T11:11:27;59.58;;;30.35;;
59474;SDS011;45288;51.136;16.928;2024-03-02T11:13:56;65.00;;;33.15;;
59474;SDS011;45288;51.136;16.928;2024-03-02T11:16:34;54.75;;;29.30;;
59474;SDS011;45288;51.136;16.928;2024-03-02T11:19:08;54.67;;;28.65;;
59474;SDS011;45288;51.136;16.928;2024-03-02T11:21:37;49.92;;;27.92;;
59474;SDS011;45288;51.136;16.928;2024-03-02T11:26:53;61.00;;;29.25;;
59474;SDS011;45288;51.136;16.928;2024-03-02T11:32:21;53.93;;;27.37;;
59474;SDS011;45288;51.136;16.928;2024-03-02T11:34:50;53.88;;;26.67;;
59474;SDS011;45288;51.136;16.928;2024-03-02T11:37:18;50.40;;;26.53;;
59474;SDS011;45288;51.136;16.928;2024-03-02T11:39:45;48.28;;;26.05;;
59474;SDS011;45288;51.136;16.928;2024-03-02T11:42:12;51.30;;;26.13;;
59474;SDS011;45288;51.136;16.928;2024-03-02T11:44:41;50.20;;;26.17;;
59474;SDS011;45288;51.136;16.928;2024-03-02T11:47:10;50.78;;;25.02;;
59474;SDS011;45288;51.136;16.928;2024-03-02T11:49:40;53.08;;;25.90;;
59474;SDS011;45288;51.136;16.928;2024-03-02T11:52:07;57.75;;;27.33;;
59474;SDS011;45288;51.136;16.928;2024-03-02T11:54:35;51.42;;;26.00;;
59474;SDS011;45288;51.136;16.928;2024-03-02T11:57:05;85.95;;;73.68;;
59474;SDS011;45288;51.136;16.928;2024-03-02T11:59:34;60.00;;;29.10;;
59474;SDS011;45288;51.136;16.928;2024-03-02T12:02:00;62.90;;;28.95;;
59474;SDS011;45288;51.136;16.928;2024-03-02T12:04:26;60.00;;;28.27;;
59474;SDS011;45288;51.136;16.928;2024-03-02T12:06:59;48.83;;;26.63;;
59474;SDS011;45288;51.136;16.928;2024-03-02T12:09:26;50.58;;;27.45;;
59474;SDS011;45288;51.136;16.928;2024-03-02T12:12:03;51.45;;;25.85;;
59474;SDS011;45288;51.136;16.928;2024-03-02T12:14:31;47.83;;;25.63;;
59474;SDS011;45288;51.136;16.928;2024-03-02T12:16:57;44.38;;;25.35;;
59474;SDS011;45288;51.136;16.928;2024-03-02T12:19:24;45.37;;;24.13;;
59474;SDS011;45288;51.136;16.928;2024-03-02T12:21:52;50.60;;;25.95;;
59474;SDS011;45288;51.136;16.928;2024-03-02T12:24:18;43.30;;;24.75;;
59474;SDS011;45288;51.136;16.928;2024-03-02T12:26:44;41.72;;;23.70;;
59474;SDS011;45288;51.136;16.928;2024-03-02T12:29:10;48.33;;;23.38;;
59474;SDS011;45288;51.136;16.928;2024-03-02T12:31:36;41.97;;;22.20;;
59474;SDS011;45288;51.136;16.928;2024-03-02T12:34:03;40.83;;;22.30;;
59474;SDS011;45288;51.136;16.928;2024-03-02T12:36:29;40.03;;;21.08;;
59474;SDS011;45288;51.136;16.928;2024-03-02T12:38:55;41.15;;;20.10;;
59474;SDS011;45288;51.136;16.928;2024-03-02T12:41:21;38.47;;;19.80;;
59474;SDS011;45288;51.136;16.928;2024-03-02T12:43:46;41.67;;;19.95;;
59474;SDS011;45288;51.136;16.928;2024-03-02T12:46:15;41.03;;;21.20;;
59474;SDS011;45288;51.136;16.928;2024-03-02T12:48:41;40.15;;;21.10;;
59474;SDS011;45288;51.136;16.928;2024-03-02T12:51:07;42.92;;;22.05;;
59474;SDS011;45288;51.136;16.928;2024-03-02T12:53:33;40.97;;;22.30;;
59474;SDS011;45288;51.136;16.928;2024-03-02T12:55:59;43.38;;;21.80;;
59474;SDS011;45288;51.136;16.928;2024-03-02T12:58:25;42.13;;;21.13;;
59474;SDS011;45288;51.136;16.928;2024-03-02T13:01:05;39.03;;;20.95;;
59474;SDS011;45288;51.136;16.928;2024-03-02T13:03:39;39.83;;;21.63;;
59474;SDS011;45288;51.136;16.928;2024-03-02T13:06:06;46.47;;;24.05;;
59474;SDS011;45288;51.136;16.928;2024-03-02T13:08:33;43.75;;;22.15;;
59474;SDS011;45288;51.136;16.928;2024-03-02T13:10:59;46.28;;;23.33;;
59474;SDS011;45288;51.136;16.928;2024-03-02T13:13:24;45.22;;;23.52;;
59474;SDS011;45288;51.136;16.928;2024-03-02T13:15:54;43.38;;;23.13;;
59474;SDS011;45288;51.136;16.928;2024-03-02T13:18:21;44.87;;;23.97;;
59474;SDS011;45288;51.136;16.928;2024-03-02T13:20:47;41.90;;;22.83;;
59474;SDS011;45288;51.136;16.928;2024-03-02T13:23:13;43.33;;;24.15;;
59474;SDS011;45288;51.136;16.928;2024-03-02T13:25:39;43.80;;;23.53;;
59474;SDS011;45288;51.136;16.928;2024-03-02T13:28:05;49.70;;;25.35;;
59474;SDS011;45288;51.136;16.928;2024-03-02T13:30:32;41.67;;;23.38;;
59474;SDS011;45288;51.136;16.928;2024-03-02T13:32:58;44.47;;;23.67;;
59474;SDS011;45288;51.136;16.928;2024-03-02T13:35:23;43.10;;;23.52;;
59474;SDS011;45288;51.136;16.928;2024-03-02T13:37:49;44.38;;;23.40;;
59474;SDS011;45288;51.136;16.928;2024-03-02T13:40:15;43.97;;;23.77;;
59474;SDS011;45288;51.136;16.928;2024-03-02T13:42:45;38.03;;;22.85;;
59474;SDS011;45288;51.136;16.928;2024-03-02T13:45:12;44.17;;;23.07;;
59474;SDS011;45288;51.136;16.928;2024-03-02T13:47:38;38.92;;;21.58;;
59474;SDS011;45288;51.136;16.928;2024-03-02T13:50:04;42.20;;;22.10;;
59474;SDS011;45288;51.136;16.928;2024-03-02T13:52:31;38.13;;;20.07;;
59474;SDS011;45288;51.136;16.928;2024-03-02T13:54:57;43.38;;;21.95;;
59474;SDS011;45288;51.136;16.928;2024-03-02T13:57:23;42.97;;;23.03;;
59474;SDS011;45288;51.136;16.928;2024-03-02T13:59:48;42.13;;;22.70;;
59474;SDS011;45288;51.136;16.928;2024-03-02T14:02:14;45.60;;;24.53;;
59474;SDS011;45288;51.136;16.928;2024-03-02T14:04:40;40.30;;;22.77;;
59474;SDS011;45288;51.136;16.928;2024-03-02T14:07:06;40.63;;;21.07;;
59474;SDS011;45288;51.136;16.928;2024-03-02T14:09:36;40.58;;;21.75;;
59474;SDS011;45288;51.136;16.928;2024-03-02T14:12:01;42.13;;;22.08;;
59474;SDS011;45288;51.136;16.928;2024-03-02T14:14:29;42.57;;;21.37;;
59474;SDS011;45288;51.136;16.928;2024-03-02T14:16:55;37.33;;;20.60;;
59474;SDS011;45288;51.136;16.928;2024-03-02T14:19:29;42.28;;;22.35;;